2022-05-18 - 03:23:00

SR: 0330 - SS: 1922

RWY: 07


OBSERVATION: n/a

RVR Mean 1 min: (Runway Visual Range)
A: P2000 - B: P2000 - C: P2000
RVR Mean 10 min:
A: P2000 - B: P2000 - C: P2000
WARNING: n/a
W25: 360-360(110-03kt) 01kt-06kt
W07: 080-140(100-04kt) 02kt-07kt
OTHER: n/a

QFE: (tatsächlicher Luftdruck) 1014.5 hPa = 29.94 inHg
QNH:(Luftdruck auf Meereshöhe) 1020.3 hPa = 30.12 inHg
Temperatur: 15.0 °C
Dew point(Taupunkt): 13.0 °C

METAR:  00345 SADL31 EDDG 180320 METAR EDDG 180320Z 12003KT 040V190 CAVOK 15/13 Q1020 NOSIG= 
METAR (aus weather.noaa.gov):
2022/05/18 03:20 EDDG 180320Z 12003KT 040V190 CAVOK 15/13 Q1020 NOSIG

TAF (aus weather.noaa.gov):
2022/05/17 18:29 TAF EDDG 171700Z 1718/1818 13004KT CAVOK BECMG 1808/1811 22006KT BECMG 1815/1818 VRB03KT
NOWCAST
754
FODL44 EDDG 180300
FODL44 EDDG 2205180305
# Nowcasting EDDG 18.05.2022 03:05 UTC
Parameter/Stunde04050607080910
Windrichtung130140140150170180200
Windgeschwindigkeit3445566
Böen--------------
Lufttemperatur16171921232426
Taupunkt13131314141313
Belagstemperatur15172024272931
Wetter-vorherrschend--------------
QNH1020102110211021102110211021
Wind in 5000 ft240/10240/10250/10250/10250/10250/10250/05
Wind in 3000 ft230/10230/15230/15230/10240/10240/10230/10
Wind in 2000 ft220/15220/20220/15220/15230/15230/10220/10
Wind in 1000 ft180/15190/15190/15190/15180/10190/10210/05